sensor_id;sensor_type;location;lat;lon;timestamp;P1;durP1;ratioP1;P2;durP2;ratioP2
44670;SDS011;48397;53.016;-2.260;2022-12-10T00:01:50;14.80;;;6.53;;
44670;SDS011;48397;53.016;-2.260;2022-12-10T00:04:19;14.33;;;7.07;;
44670;SDS011;48397;53.016;-2.260;2022-12-10T00:06:48;13.87;;;6.73;;
44670;SDS011;48397;53.016;-2.260;2022-12-10T00:09:17;13.80;;;6.40;;
44670;SDS011;48397;53.016;-2.260;2022-12-10T00:11:46;14.00;;;6.53;;
44670;SDS011;48397;53.016;-2.260;2022-12-10T00:14:14;12.95;;;5.90;;
44670;SDS011;48397;53.016;-2.260;2022-12-10T00:16:42;15.67;;;7.13;;
44670;SDS011;48397;53.016;-2.260;2022-12-10T00:21:38;15.80;;;7.75;;
44670;SDS011;48397;53.016;-2.260;2022-12-10T00:24:06;12.38;;;7.35;;
44670;SDS011;48397;53.016;-2.260;2022-12-10T00:29:03;17.93;;;8.10;;
44670;SDS011;48397;53.016;-2.260;2022-12-10T00:31:34;16.67;;;8.63;;
44670;SDS011;48397;53.016;-2.260;2022-12-10T00:34:04;12.87;;;7.00;;
44670;SDS011;48397;53.016;-2.260;2022-12-10T00:36:37;20.57;;;8.80;;
44670;SDS011;48397;53.016;-2.260;2022-12-10T00:39:06;16.80;;;7.23;;
44670;SDS011;48397;53.016;-2.260;2022-12-10T00:41:35;24.53;;;9.83;;
44670;SDS011;48397;53.016;-2.260;2022-12-10T00:44:03;17.63;;;8.57;;
44670;SDS011;48397;53.016;-2.260;2022-12-10T00:46:32;20.77;;;9.47;;
44670;SDS011;48397;53.016;-2.260;2022-12-10T00:49:01;25.93;;;11.17;;
44670;SDS011;48397;53.016;-2.260;2022-12-10T00:51:28;36.92;;;14.15;;
44670;SDS011;48397;53.016;-2.260;2022-12-10T00:56:27;15.90;;;6.97;;
44670;SDS011;48397;53.016;-2.260;2022-12-10T00:58:57;19.63;;;8.57;;
44670;SDS011;48397;53.016;-2.260;2022-12-10T01:03:57;19.23;;;9.47;;
44670;SDS011;48397;53.016;-2.260;2022-12-10T01:06:27;20.23;;;9.87;;
44670;SDS011;48397;53.016;-2.260;2022-12-10T01:09:02;22.07;;;10.10;;
44670;SDS011;48397;53.016;-2.260;2022-12-10T01:11:33;28.23;;;10.83;;
44670;SDS011;48397;53.016;-2.260;2022-12-10T01:14:05;18.80;;;9.40;;
44670;SDS011;48397;53.016;-2.260;2022-12-10T01:16:37;24.37;;;9.93;;
44670;SDS011;48397;53.016;-2.260;2022-12-10T01:19:05;27.73;;;9.67;;
44670;SDS011;48397;53.016;-2.260;2022-12-10T01:21:36;27.83;;;11.10;;
44670;SDS011;48397;53.016;-2.260;2022-12-10T01:26:33;24.43;;;10.43;;
44670;SDS011;48397;53.016;-2.260;2022-12-10T01:29:04;24.17;;;10.80;;
44670;SDS011;48397;53.016;-2.260;2022-12-10T01:31:34;24.83;;;11.30;;
44670;SDS011;48397;53.016;-2.260;2022-12-10T01:34:06;22.10;;;9.20;;
44670;SDS011;48397;53.016;-2.260;2022-12-10T01:36:37;16.30;;;7.63;;
44670;SDS011;48397;53.016;-2.260;2022-12-10T01:39:12;20.60;;;9.47;;
44670;SDS011;48397;53.016;-2.260;2022-12-10T01:41:45;23.57;;;10.87;;
44670;SDS011;48397;53.016;-2.260;2022-12-10T01:46:47;22.43;;;9.50;;
44670;SDS011;48397;53.016;-2.260;2022-12-10T01:49:19;19.90;;;9.80;;
44670;SDS011;48397;53.016;-2.260;2022-12-10T01:51:53;21.87;;;9.97;;
44670;SDS011;48397;53.016;-2.260;2022-12-10T01:54:24;17.50;;;8.70;;
44670;SDS011;48397;53.016;-2.260;2022-12-10T01:57:02;19.63;;;9.33;;
44670;SDS011;48397;53.016;-2.260;2022-12-10T01:59:35;22.30;;;8.87;;
44670;SDS011;48397;53.016;-2.260;2022-12-10T02:02:17;19.00;;;8.27;;
44670;SDS011;48397;53.016;-2.260;2022-12-10T02:05:09;14.20;;;6.60;;
44670;SDS011;48397;53.016;-2.260;2022-12-10T02:07:55;15.13;;;7.43;;
44670;SDS011;48397;53.016;-2.260;2022-12-10T02:10:35;15.47;;;7.20;;
44670;SDS011;48397;53.016;-2.260;2022-12-10T02:18:17;18.97;;;10.23;;
44670;SDS011;48397;53.016;-2.260;2022-12-10T02:20:54;25.57;;;9.53;;
44670;SDS011;48397;53.016;-2.260;2022-12-10T02:23:27;18.60;;;9.07;;
44670;SDS011;48397;53.016;-2.260;2022-12-10T02:29:18;15.37;;;7.00;;
44670;SDS011;48397;53.016;-2.260;2022-12-10T02:31:55;16.47;;;7.23;;
44670;SDS011;48397;53.016;-2.260;2022-12-10T02:34:55;14.60;;;6.40;;
44670;SDS011;48397;53.016;-2.260;2022-12-10T02:37:37;15.03;;;7.10;;
44670;SDS011;48397;53.016;-2.260;2022-12-10T02:40:14;12.87;;;6.13;;
44670;SDS011;48397;53.016;-2.260;2022-12-10T02:42:50;12.13;;;6.43;;
44670;SDS011;48397;53.016;-2.260;2022-12-10T02:45:20;12.33;;;6.60;;
44670;SDS011;48397;53.016;-2.260;2022-12-10T02:47:52;17.80;;;6.60;;
44670;SDS011;48397;53.016;-2.260;2022-12-10T02:50:26;15.73;;;6.37;;
44670;SDS011;48397;53.016;-2.260;2022-12-10T02:55:23;13.03;;;5.47;;
44670;SDS011;48397;53.016;-2.260;2022-12-10T03:00:25;11.80;;;6.13;;
44670;SDS011;48397;53.016;-2.260;2022-12-10T03:11:30;12.60;;;6.27;;
44670;SDS011;48397;53.016;-2.260;2022-12-10T03:16:53;13.57;;;7.17;;
44670;SDS011;48397;53.016;-2.260;2022-12-10T03:19:30;16.30;;;7.33;;
44670;SDS011;48397;53.016;-2.260;2022-12-10T03:22:14;16.03;;;7.53;;
44670;SDS011;48397;53.016;-2.260;2022-12-10T03:24:49;16.57;;;7.87;;
44670;SDS011;48397;53.016;-2.260;2022-12-10T03:27:19;16.23;;;6.93;;
44670;SDS011;48397;53.016;-2.260;2022-12-10T03:29:51;14.20;;;7.37;;
44670;SDS011;48397;53.016;-2.260;2022-12-10T03:32:22;15.83;;;8.00;;
44670;SDS011;48397;53.016;-2.260;2022-12-10T03:34:56;18.07;;;7.47;;
44670;SDS011;48397;53.016;-2.260;2022-12-10T03:37:27;14.53;;;6.47;;
44670;SDS011;48397;53.016;-2.260;2022-12-10T03:39:56;17.63;;;7.93;;
44670;SDS011;48397;53.016;-2.260;2022-12-10T03:42:25;16.70;;;7.70;;
44670;SDS011;48397;53.016;-2.260;2022-12-10T03:44:53;17.40;;;7.97;;
44670;SDS011;48397;53.016;-2.260;2022-12-10T03:47:22;21.30;;;9.40;;
44670;SDS011;48397;53.016;-2.260;2022-12-10T03:49:50;20.00;;;8.50;;
44670;SDS011;48397;53.016;-2.260;2022-12-10T03:52:18;16.92;;;8.23;;
44670;SDS011;48397;53.016;-2.260;2022-12-10T03:54:46;14.77;;;7.30;;
44670;SDS011;48397;53.016;-2.260;2022-12-10T03:59:42;17.17;;;8.15;;
44670;SDS011;48397;53.016;-2.260;2022-12-10T04:02:10;18.30;;;8.60;;
44670;SDS011;48397;53.016;-2.260;2022-12-10T04:04:38;25.38;;;9.70;;
44670;SDS011;48397;53.016;-2.260;2022-12-10T04:07:07;18.27;;;9.13;;
44670;SDS011;48397;53.016;-2.260;2022-12-10T04:09:35;22.92;;;10.15;;
44670;SDS011;48397;53.016;-2.260;2022-12-10T04:12:03;18.77;;;9.40;;
44670;SDS011;48397;53.016;-2.260;2022-12-10T04:14:32;23.50;;;9.67;;
44670;SDS011;48397;53.016;-2.260;2022-12-10T04:17:18;20.13;;;8.57;;
44670;SDS011;48397;53.016;-2.260;2022-12-10T04:19:47;16.88;;;8.13;;
44670;SDS011;48397;53.016;-2.260;2022-12-10T04:22:15;20.60;;;9.97;;
44670;SDS011;48397;53.016;-2.260;2022-12-10T04:25:01;23.03;;;10.10;;
44670;SDS011;48397;53.016;-2.260;2022-12-10T04:27:47;18.30;;;9.33;;
44670;SDS011;48397;53.016;-2.260;2022-12-10T04:30:15;12.85;;;6.78;;
44670;SDS011;48397;53.016;-2.260;2022-12-10T04:32:43;23.95;;;10.75;;
44670;SDS011;48397;53.016;-2.260;2022-12-10T04:35:14;22.23;;;11.13;;
44670;SDS011;48397;53.016;-2.260;2022-12-10T04:37:41;15.40;;;8.02;;
44670;SDS011;48397;53.016;-2.260;2022-12-10T04:40:09;24.52;;;11.70;;
44670;SDS011;48397;53.016;-2.260;2022-12-10T04:42:39;20.73;;;10.30;;
44670;SDS011;48397;53.016;-2.260;2022-12-10T04:45:08;19.38;;;9.73;;
44670;SDS011;48397;53.016;-2.260;2022-12-10T04:47:36;21.70;;;11.30;;
44670;SDS011;48397;53.016;-2.260;2022-12-10T04:50:03;21.52;;;10.07;;
44670;SDS011;48397;53.016;-2.260;2022-12-10T04:52:32;19.10;;;9.80;;
44670;SDS011;48397;53.016;-2.260;2022-12-10T04:55:00;22.08;;;10.95;;
44670;SDS011;48397;53.016;-2.260;2022-12-10T04:57:29;21.52;;;11.02;;
44670;SDS011;48397;53.016;-2.260;2022-12-10T05:00:00;21.30;;;10.23;;
44670;SDS011;48397;53.016;-2.260;2022-12-10T05:02:27;21.05;;;10.70;;
44670;SDS011;48397;53.016;-2.260;2022-12-10T05:04:55;22.42;;;10.65;;
44670;SDS011;48397;53.016;-2.260;2022-12-10T05:07:23;16.90;;;8.75;;
44670;SDS011;48397;53.016;-2.260;2022-12-10T05:09:54;20.07;;;8.27;;
44670;SDS011;48397;53.016;-2.260;2022-12-10T05:12:22;18.03;;;8.37;;
44670;SDS011;48397;53.016;-2.260;2022-12-10T05:14:49;18.45;;;9.40;;
44670;SDS011;48397;53.016;-2.260;2022-12-10T05:17:20;18.23;;;9.17;;
44670;SDS011;48397;53.016;-2.260;2022-12-10T05:19:48;15.38;;;8.07;;
44670;SDS011;48397;53.016;-2.260;2022-12-10T05:22:16;14.73;;;8.45;;
44670;SDS011;48397;53.016;-2.260;2022-12-10T05:25:02;18.10;;;8.50;;
44670;SDS011;48397;53.016;-2.260;2022-12-10T05:27:31;17.02;;;9.27;;
44670;SDS011;48397;53.016;-2.260;2022-12-10T05:30:01;16.83;;;9.07;;
44670;SDS011;48397;53.016;-2.260;2022-12-10T05:32:32;15.80;;;8.77;;
44670;SDS011;48397;53.016;-2.260;2022-12-10T05:35:00;18.23;;;8.37;;
44670;SDS011;48397;53.016;-2.260;2022-12-10T05:37:28;18.38;;;8.68;;
44670;SDS011;48397;53.016;-2.260;2022-12-10T05:39:56;19.75;;;10.30;;
44670;SDS011;48397;53.016;-2.260;2022-12-10T05:42:23;20.45;;;9.70;;
44670;SDS011;48397;53.016;-2.260;2022-12-10T05:44:51;21.27;;;10.55;;
44670;SDS011;48397;53.016;-2.260;2022-12-10T05:47:19;16.40;;;9.35;;
44670;SDS011;48397;53.016;-2.260;2022-12-10T05:49:47;16.67;;;9.48;;
44670;SDS011;48397;53.016;-2.260;2022-12-10T05:52:18;14.50;;;8.47;;
44670;SDS011;48397;53.016;-2.260;2022-12-10T05:54:47;17.40;;;8.60;;
44670;SDS011;48397;53.016;-2.260;2022-12-10T05:57:19;20.40;;;9.57;;
44670;SDS011;48397;53.016;-2.260;2022-12-10T05:59:47;19.13;;;9.18;;
44670;SDS011;48397;53.016;-2.260;2022-12-10T06:02:18;17.53;;;8.80;;
44670;SDS011;48397;53.016;-2.260;2022-12-10T06:04:47;21.30;;;8.85;;
44670;SDS011;48397;53.016;-2.260;2022-12-10T06:07:16;17.47;;;8.20;;
44670;SDS011;48397;53.016;-2.260;2022-12-10T06:12:12;15.17;;;7.17;;
44670;SDS011;48397;53.016;-2.260;2022-12-10T06:14:40;13.30;;;6.70;;
44670;SDS011;48397;53.016;-2.260;2022-12-10T06:17:08;11.97;;;5.83;;
44670;SDS011;48397;53.016;-2.260;2022-12-10T06:19:36;13.98;;;6.65;;
44670;SDS011;48397;53.016;-2.260;2022-12-10T06:22:04;21.60;;;8.93;;
44670;SDS011;48397;53.016;-2.260;2022-12-10T06:24:32;19.20;;;8.43;;
44670;SDS011;48397;53.016;-2.260;2022-12-10T06:27:00;20.58;;;8.95;;
44670;SDS011;48397;53.016;-2.260;2022-12-10T06:31:57;17.70;;;8.33;;
44670;SDS011;48397;53.016;-2.260;2022-12-10T06:34:26;16.90;;;8.37;;
44670;SDS011;48397;53.016;-2.260;2022-12-10T06:36:54;16.73;;;7.97;;
44670;SDS011;48397;53.016;-2.260;2022-12-10T06:39:23;18.37;;;9.13;;
44670;SDS011;48397;53.016;-2.260;2022-12-10T06:41:51;18.67;;;8.52;;
44670;SDS011;48397;53.016;-2.260;2022-12-10T06:44:29;18.02;;;8.43;;
44670;SDS011;48397;53.016;-2.260;2022-12-10T06:46:57;17.10;;;7.93;;
44670;SDS011;48397;53.016;-2.260;2022-12-10T06:49:26;18.93;;;8.50;;
44670;SDS011;48397;53.016;-2.260;2022-12-10T06:51:53;16.67;;;8.68;;
44670;SDS011;48397;53.016;-2.260;2022-12-10T06:54:23;18.60;;;7.70;;
44670;SDS011;48397;53.016;-2.260;2022-12-10T06:56:52;15.77;;;7.93;;
44670;SDS011;48397;53.016;-2.260;2022-12-10T06:59:19;18.30;;;8.55;;
44670;SDS011;48397;53.016;-2.260;2022-12-10T07:01:48;18.38;;;9.25;;
44670;SDS011;48397;53.016;-2.260;2022-12-10T07:04:18;18.13;;;8.07;;
44670;SDS011;48397;53.016;-2.260;2022-12-10T07:06:47;20.77;;;10.03;;
44670;SDS011;48397;53.016;-2.260;2022-12-10T07:09:16;17.43;;;9.33;;
44670;SDS011;48397;53.016;-2.260;2022-12-10T07:11:44;18.27;;;9.60;;
44670;SDS011;48397;53.016;-2.260;2022-12-10T07:14:13;19.57;;;9.20;;
44670;SDS011;48397;53.016;-2.260;2022-12-10T07:16:42;23.20;;;10.37;;
44670;SDS011;48397;53.016;-2.260;2022-12-10T07:19:12;20.93;;;9.57;;
44670;SDS011;48397;53.016;-2.260;2022-12-10T07:21:42;22.87;;;10.40;;
44670;SDS011;48397;53.016;-2.260;2022-12-10T07:24:11;21.30;;;10.77;;
44670;SDS011;48397;53.016;-2.260;2022-12-10T07:26:42;20.97;;;9.80;;
44670;SDS011;48397;53.016;-2.260;2022-12-10T07:29:13;24.17;;;11.00;;
44670;SDS011;48397;53.016;-2.260;2022-12-10T07:31:46;22.93;;;11.77;;
44670;SDS011;48397;53.016;-2.260;2022-12-10T07:34:15;26.63;;;12.27;;
44670;SDS011;48397;53.016;-2.260;2022-12-10T07:36:45;22.20;;;11.03;;
44670;SDS011;48397;53.016;-2.260;2022-12-10T07:39:16;24.73;;;11.50;;
44670;SDS011;48397;53.016;-2.260;2022-12-10T07:41:48;22.73;;;10.27;;
44670;SDS011;48397;53.016;-2.260;2022-12-10T07:44:19;22.80;;;10.97;;
44670;SDS011;48397;53.016;-2.260;2022-12-10T07:46:48;26.33;;;12.67;;
44670;SDS011;48397;53.016;-2.260;2022-12-10T07:49:17;20.93;;;10.73;;
44670;SDS011;48397;53.016;-2.260;2022-12-10T07:51:45;24.80;;;11.77;;
44670;SDS011;48397;53.016;-2.260;2022-12-10T07:54:14;24.20;;;11.23;;
44670;SDS011;48397;53.016;-2.260;2022-12-10T07:56:43;27.03;;;13.07;;
44670;SDS011;48397;53.016;-2.260;2022-12-10T07:59:11;23.57;;;11.93;;
44670;SDS011;48397;53.016;-2.260;2022-12-10T08:01:39;30.20;;;13.48;;
44670;SDS011;48397;53.016;-2.260;2022-12-10T08:04:09;27.73;;;13.03;;
44670;SDS011;48397;53.016;-2.260;2022-12-10T08:06:36;21.90;;;10.82;;
44670;SDS011;48397;53.016;-2.260;2022-12-10T08:09:07;24.50;;;11.27;;
44670;SDS011;48397;53.016;-2.260;2022-12-10T08:11:37;24.90;;;11.80;;
44670;SDS011;48397;53.016;-2.260;2022-12-10T08:16:33;24.52;;;10.90;;
44670;SDS011;48397;53.016;-2.260;2022-12-10T08:19:00;21.17;;;10.70;;
44670;SDS011;48397;53.016;-2.260;2022-12-10T08:21:31;23.50;;;9.97;;
44670;SDS011;48397;53.016;-2.260;2022-12-10T08:24:03;25.03;;;10.67;;
44670;SDS011;48397;53.016;-2.260;2022-12-10T08:26:32;19.57;;;10.50;;
44670;SDS011;48397;53.016;-2.260;2022-12-10T08:29:02;23.47;;;10.70;;
44670;SDS011;48397;53.016;-2.260;2022-12-10T08:31:30;20.13;;;9.97;;
44670;SDS011;48397;53.016;-2.260;2022-12-10T08:34:04;23.10;;;10.93;;
44670;SDS011;48397;53.016;-2.260;2022-12-10T08:36:38;18.97;;;9.47;;
44670;SDS011;48397;53.016;-2.260;2022-12-10T08:39:06;23.47;;;10.37;;
44670;SDS011;48397;53.016;-2.260;2022-12-10T08:41:34;22.38;;;9.93;;
44670;SDS011;48397;53.016;-2.260;2022-12-10T08:44:03;19.83;;;10.83;;
44670;SDS011;48397;53.016;-2.260;2022-12-10T08:48:58;26.83;;;12.55;;
44670;SDS011;48397;53.016;-2.260;2022-12-10T08:51:32;24.50;;;12.47;;
44670;SDS011;48397;53.016;-2.260;2022-12-10T08:54:03;26.13;;;13.37;;
44670;SDS011;48397;53.016;-2.260;2022-12-10T08:56:32;27.93;;;12.50;;
44670;SDS011;48397;53.016;-2.260;2022-12-10T08:59:00;27.33;;;12.13;;
44670;SDS011;48397;53.016;-2.260;2022-12-10T09:01:28;27.38;;;13.10;;
44670;SDS011;48397;53.016;-2.260;2022-12-10T09:03:56;26.00;;;12.33;;
44670;SDS011;48397;53.016;-2.260;2022-12-10T09:06:24;29.98;;;14.30;;
44670;SDS011;48397;53.016;-2.260;2022-12-10T09:11:22;23.70;;;11.73;;
44670;SDS011;48397;53.016;-2.260;2022-12-10T09:13:52;21.80;;;11.43;;
44670;SDS011;48397;53.016;-2.260;2022-12-10T09:16:21;23.00;;;10.87;;
44670;SDS011;48397;53.016;-2.260;2022-12-10T09:19:02;21.57;;;11.20;;
44670;SDS011;48397;53.016;-2.260;2022-12-10T09:21:31;29.47;;;13.43;;
44670;SDS011;48397;53.016;-2.260;2022-12-10T09:23:59;27.23;;;12.67;;
44670;SDS011;48397;53.016;-2.260;2022-12-10T09:26:27;19.93;;;10.60;;
44670;SDS011;48397;53.016;-2.260;2022-12-10T09:28:55;26.52;;;11.23;;
44670;SDS011;48397;53.016;-2.260;2022-12-10T09:31:25;24.93;;;11.63;;
44670;SDS011;48397;53.016;-2.260;2022-12-10T09:33:56;20.90;;;11.23;;
44670;SDS011;48397;53.016;-2.260;2022-12-10T09:36:24;25.83;;;11.40;;
44670;SDS011;48397;53.016;-2.260;2022-12-10T09:38:59;22.77;;;10.87;;
44670;SDS011;48397;53.016;-2.260;2022-12-10T09:47:23;22.63;;;11.53;;
44670;SDS011;48397;53.016;-2.260;2022-12-10T09:50:01;47.93;;;13.40;;
44670;SDS011;48397;53.016;-2.260;2022-12-10T09:52:41;25.00;;;10.77;;
44670;SDS011;48397;53.016;-2.260;2022-12-10T09:55:14;21.07;;;10.03;;
44670;SDS011;48397;53.016;-2.260;2022-12-10T09:57:49;19.30;;;9.40;;
44670;SDS011;48397;53.016;-2.260;2022-12-10T10:00:23;26.00;;;11.50;;
44670;SDS011;48397;53.016;-2.260;2022-12-10T10:02:57;20.57;;;10.57;;
44670;SDS011;48397;53.016;-2.260;2022-12-10T10:05:29;25.87;;;12.33;;
44670;SDS011;48397;53.016;-2.260;2022-12-10T10:08:01;33.93;;;12.10;;
44670;SDS011;48397;53.016;-2.260;2022-12-10T10:10:39;28.63;;;13.77;;
44670;SDS011;48397;53.016;-2.260;2022-12-10T10:15:36;23.95;;;11.20;;
44670;SDS011;48397;53.016;-2.260;2022-12-10T10:21:06;20.38;;;10.15;;
44670;SDS011;48397;53.016;-2.260;2022-12-10T10:23:51;21.10;;;11.03;;
44670;SDS011;48397;53.016;-2.260;2022-12-10T10:28:46;16.58;;;7.63;;
44670;SDS011;48397;53.016;-2.260;2022-12-10T10:31:20;12.17;;;7.03;;
44670;SDS011;48397;53.016;-2.260;2022-12-10T10:33:52;11.50;;;5.93;;
44670;SDS011;48397;53.016;-2.260;2022-12-10T10:36:28;15.80;;;9.07;;
44670;SDS011;48397;53.016;-2.260;2022-12-10T10:39:11;20.83;;;9.47;;
44670;SDS011;48397;53.016;-2.260;2022-12-10T10:41:54;15.87;;;8.00;;
44670;SDS011;48397;53.016;-2.260;2022-12-10T10:44:33;8.03;;;5.10;;
44670;SDS011;48397;53.016;-2.260;2022-12-10T10:47:23;11.87;;;5.57;;
44670;SDS011;48397;53.016;-2.260;2022-12-10T10:50:01;12.55;;;6.03;;
44670;SDS011;48397;53.016;-2.260;2022-12-10T10:52:36;12.97;;;5.23;;
44670;SDS011;48397;53.016;-2.260;2022-12-10T10:55:05;9.83;;;3.80;;
44670;SDS011;48397;53.016;-2.260;2022-12-10T10:57:53;8.07;;;3.40;;
44670;SDS011;48397;53.016;-2.260;2022-12-10T11:00:21;5.97;;;3.15;;
44670;SDS011;48397;53.016;-2.260;2022-12-10T11:02:50;6.90;;;3.57;;
44670;SDS011;48397;53.016;-2.260;2022-12-10T11:07:57;9.53;;;4.10;;
44670;SDS011;48397;53.016;-2.260;2022-12-10T11:10:28;10.18;;;4.20;;
44670;SDS011;48397;53.016;-2.260;2022-12-10T11:12:58;9.73;;;4.00;;
44670;SDS011;48397;53.016;-2.260;2022-12-10T11:18:20;7.90;;;3.67;;
44670;SDS011;48397;53.016;-2.260;2022-12-10T11:21:39;5.20;;;3.40;;
44670;SDS011;48397;53.016;-2.260;2022-12-10T11:23:52;9.97;;;4.20;;
44670;SDS011;48397;53.016;-2.260;2022-12-10T11:32:46;6.47;;;3.63;;
44670;SDS011;48397;53.016;-2.260;2022-12-10T11:45:46;7.63;;;4.00;;
44670;SDS011;48397;53.016;-2.260;2022-12-10T11:48:53;10.73;;;4.17;;
44670;SDS011;48397;53.016;-2.260;2022-12-10T11:52:06;9.40;;;4.10;;
44670;SDS011;48397;53.016;-2.260;2022-12-10T11:58:12;9.37;;;4.53;;
44670;SDS011;48397;53.016;-2.260;2022-12-10T12:01:12;10.50;;;4.67;;
44670;SDS011;48397;53.016;-2.260;2022-12-10T12:09:48;11.80;;;4.97;;
44670;SDS011;48397;53.016;-2.260;2022-12-10T12:15:44;12.27;;;5.47;;
44670;SDS011;48397;53.016;-2.260;2022-12-10T12:18:23;9.30;;;5.10;;
44670;SDS011;48397;53.016;-2.260;2022-12-10T12:21:02;10.60;;;5.00;;
44670;SDS011;48397;53.016;-2.260;2022-12-10T12:26:32;8.80;;;4.77;;
44670;SDS011;48397;53.016;-2.260;2022-12-10T12:29:16;10.23;;;5.20;;
44670;SDS011;48397;53.016;-2.260;2022-12-10T12:34:59;9.03;;;4.67;;
44670;SDS011;48397;53.016;-2.260;2022-12-10T12:37:38;8.75;;;4.82;;
44670;SDS011;48397;53.016;-2.260;2022-12-10T12:51:03;7.38;;;4.00;;
44670;SDS011;48397;53.016;-2.260;2022-12-10T12:53:43;9.75;;;4.00;;
44670;SDS011;48397;53.016;-2.260;2022-12-10T13:04:57;7.40;;;3.38;;
44670;SDS011;48397;53.016;-2.260;2022-12-10T13:07:33;7.95;;;4.07;;
44670;SDS011;48397;53.016;-2.260;2022-12-10T13:15:20;9.70;;;4.10;;
44670;SDS011;48397;53.016;-2.260;2022-12-10T13:23:52;10.27;;;3.90;;
44670;SDS011;48397;53.016;-2.260;2022-12-10T13:26:27;7.63;;;3.92;;
44670;SDS011;48397;53.016;-2.260;2022-12-10T13:31:54;5.82;;;3.50;;
44670;SDS011;48397;53.016;-2.260;2022-12-10T13:34:31;9.02;;;3.95;;
44670;SDS011;48397;53.016;-2.260;2022-12-10T13:47:44;8.50;;;4.40;;
44670;SDS011;48397;53.016;-2.260;2022-12-10T13:50:19;9.98;;;3.63;;
44670;SDS011;48397;53.016;-2.260;2022-12-10T13:59:06;5.85;;;2.63;;
44670;SDS011;48397;53.016;-2.260;2022-12-10T14:02:16;6.15;;;2.75;;
44670;SDS011;48397;53.016;-2.260;2022-12-10T14:05:03;7.38;;;2.90;;
44670;SDS011;48397;53.016;-2.260;2022-12-10T14:07:53;7.05;;;2.67;;
44670;SDS011;48397;53.016;-2.260;2022-12-10T14:10:26;7.82;;;2.83;;
44670;SDS011;48397;53.016;-2.260;2022-12-10T14:13:01;4.93;;;2.20;;
44670;SDS011;48397;53.016;-2.260;2022-12-10T14:15:31;5.95;;;2.72;;
44670;SDS011;48397;53.016;-2.260;2022-12-10T14:18:03;6.18;;;3.00;;
44670;SDS011;48397;53.016;-2.260;2022-12-10T14:20:41;5.70;;;2.50;;
44670;SDS011;48397;53.016;-2.260;2022-12-10T14:23:30;6.47;;;2.40;;
44670;SDS011;48397;53.016;-2.260;2022-12-10T14:26:05;6.47;;;3.08;;
44670;SDS011;48397;53.016;-2.260;2022-12-10T14:28:39;5.30;;;2.95;;
44670;SDS011;48397;53.016;-2.260;2022-12-10T14:31:36;5.82;;;3.13;;
44670;SDS011;48397;53.016;-2.260;2022-12-10T14:34:12;6.95;;;3.38;;
44670;SDS011;48397;53.016;-2.260;2022-12-10T14:36:49;9.82;;;3.63;;
44670;SDS011;48397;53.016;-2.260;2022-12-10T14:39:20;7.75;;;4.40;;
44670;SDS011;48397;53.016;-2.260;2022-12-10T14:41:54;6.85;;;3.90;;
44670;SDS011;48397;53.016;-2.260;2022-12-10T14:44:30;6.40;;;3.47;;
44670;SDS011;48397;53.016;-2.260;2022-12-10T14:47:02;11.60;;;4.38;;
44670;SDS011;48397;53.016;-2.260;2022-12-10T14:49:32;13.13;;;5.05;;
44670;SDS011;48397;53.016;-2.260;2022-12-10T14:52:13;10.95;;;4.45;;
44670;SDS011;48397;53.016;-2.260;2022-12-10T14:54:45;13.52;;;4.65;;
44670;SDS011;48397;53.016;-2.260;2022-12-10T14:57:18;10.75;;;4.97;;
44670;SDS011;48397;53.016;-2.260;2022-12-10T15:02:48;10.10;;;4.07;;
44670;SDS011;48397;53.016;-2.260;2022-12-10T15:05:21;10.15;;;4.97;;
44670;SDS011;48397;53.016;-2.260;2022-12-10T15:08:13;10.60;;;4.35;;
44670;SDS011;48397;53.016;-2.260;2022-12-10T15:10:44;8.13;;;4.70;;
44670;SDS011;48397;53.016;-2.260;2022-12-10T15:13:38;11.77;;;5.25;;
44670;SDS011;48397;53.016;-2.260;2022-12-10T15:16:15;8.02;;;4.35;;
44670;SDS011;48397;53.016;-2.260;2022-12-10T15:18:45;6.72;;;4.45;;
44670;SDS011;48397;53.016;-2.260;2022-12-10T15:23:43;8.60;;;4.87;;
44670;SDS011;48397;53.016;-2.260;2022-12-10T15:26:27;9.45;;;4.75;;
44670;SDS011;48397;53.016;-2.260;2022-12-10T15:31:55;12.73;;;6.57;;
44670;SDS011;48397;53.016;-2.260;2022-12-10T15:34:28;9.77;;;4.50;;
44670;SDS011;48397;53.016;-2.260;2022-12-10T15:37:00;11.87;;;5.07;;
44670;SDS011;48397;53.016;-2.260;2022-12-10T15:39:31;10.32;;;4.45;;
44670;SDS011;48397;53.016;-2.260;2022-12-10T15:42:05;10.38;;;4.88;;
44670;SDS011;48397;53.016;-2.260;2022-12-10T15:47:20;12.50;;;6.13;;
44670;SDS011;48397;53.016;-2.260;2022-12-10T15:49:51;19.30;;;7.30;;
44670;SDS011;48397;53.016;-2.260;2022-12-10T15:52:30;16.03;;;8.07;;
44670;SDS011;48397;53.016;-2.260;2022-12-10T15:54:59;17.43;;;8.30;;
44670;SDS011;48397;53.016;-2.260;2022-12-10T15:57:33;16.25;;;7.88;;
44670;SDS011;48397;53.016;-2.260;2022-12-10T16:00:06;16.00;;;7.43;;
44670;SDS011;48397;53.016;-2.260;2022-12-10T16:02:55;18.10;;;7.70;;
44670;SDS011;48397;53.016;-2.260;2022-12-10T16:05:30;13.40;;;7.87;;
44670;SDS011;48397;53.016;-2.260;2022-12-10T16:08:11;16.80;;;7.77;;
44670;SDS011;48397;53.016;-2.260;2022-12-10T16:10:43;14.53;;;7.57;;
44670;SDS011;48397;53.016;-2.260;2022-12-10T16:13:16;18.35;;;8.20;;
44670;SDS011;48397;53.016;-2.260;2022-12-10T16:15:55;20.83;;;9.77;;
44670;SDS011;48397;53.016;-2.260;2022-12-10T16:18:27;19.20;;;10.30;;
44670;SDS011;48397;53.016;-2.260;2022-12-10T16:21:00;19.37;;;10.37;;
44670;SDS011;48397;53.016;-2.260;2022-12-10T16:23:28;23.98;;;10.18;;
44670;SDS011;48397;53.016;-2.260;2022-12-10T16:25:56;19.15;;;9.88;;
44670;SDS011;48397;53.016;-2.260;2022-12-10T16:28:25;18.87;;;8.80;;
44670;SDS011;48397;53.016;-2.260;2022-12-10T16:33:25;16.80;;;8.23;;
44670;SDS011;48397;53.016;-2.260;2022-12-10T16:35:55;16.97;;;7.73;;
44670;SDS011;48397;53.016;-2.260;2022-12-10T16:38:29;15.93;;;7.55;;
44670;SDS011;48397;53.016;-2.260;2022-12-10T16:40:56;13.77;;;7.10;;
44670;SDS011;48397;53.016;-2.260;2022-12-10T16:43:26;14.60;;;7.63;;
44670;SDS011;48397;53.016;-2.260;2022-12-10T16:45:56;16.23;;;8.00;;
44670;SDS011;48397;53.016;-2.260;2022-12-10T16:48:24;15.40;;;7.60;;
44670;SDS011;48397;53.016;-2.260;2022-12-10T16:50:52;17.48;;;8.65;;
44670;SDS011;48397;53.016;-2.260;2022-12-10T16:53:30;14.73;;;7.72;;
44670;SDS011;48397;53.016;-2.260;2022-12-10T16:56:01;14.30;;;7.17;;
44670;SDS011;48397;53.016;-2.260;2022-12-10T16:58:31;15.03;;;7.57;;
44670;SDS011;48397;53.016;-2.260;2022-12-10T17:00:58;16.75;;;8.20;;
44670;SDS011;48397;53.016;-2.260;2022-12-10T17:03:28;16.20;;;8.23;;
44670;SDS011;48397;53.016;-2.260;2022-12-10T17:05:58;15.17;;;8.70;;
44670;SDS011;48397;53.016;-2.260;2022-12-10T17:08:27;20.63;;;8.40;;
44670;SDS011;48397;53.016;-2.260;2022-12-10T17:10:56;21.43;;;9.60;;
44670;SDS011;48397;53.016;-2.260;2022-12-10T17:13:43;18.75;;;9.32;;
44670;SDS011;48397;53.016;-2.260;2022-12-10T17:16:12;17.50;;;8.47;;
44670;SDS011;48397;53.016;-2.260;2022-12-10T17:18:47;15.53;;;7.43;;
44670;SDS011;48397;53.016;-2.260;2022-12-10T17:23:42;14.13;;;7.03;;
44670;SDS011;48397;53.016;-2.260;2022-12-10T17:26:19;13.48;;;6.63;;
44670;SDS011;48397;53.016;-2.260;2022-12-10T17:28:54;13.40;;;7.27;;
44670;SDS011;48397;53.016;-2.260;2022-12-10T17:31:28;14.33;;;7.47;;
44670;SDS011;48397;53.016;-2.260;2022-12-10T17:33:56;10.50;;;6.32;;
44670;SDS011;48397;53.016;-2.260;2022-12-10T17:36:24;13.05;;;6.40;;
44670;SDS011;48397;53.016;-2.260;2022-12-10T17:41:19;12.48;;;6.05;;
44670;SDS011;48397;53.016;-2.260;2022-12-10T17:46:18;12.70;;;6.40;;
44670;SDS011;48397;53.016;-2.260;2022-12-10T17:48:50;13.93;;;7.17;;
44670;SDS011;48397;53.016;-2.260;2022-12-10T17:51:19;16.17;;;8.20;;
44670;SDS011;48397;53.016;-2.260;2022-12-10T17:53:47;15.55;;;8.02;;